sensor_id;sensor_type;location;lat;lon;timestamp;temperature;humidity
35690;DHT22;26977;44.830;-0.674;2022-08-03T00:01:41;22.50;95.70
35690;DHT22;26977;44.830;-0.674;2022-08-03T00:04:08;22.40;95.70
35690;DHT22;26977;44.830;-0.674;2022-08-03T00:06:34;22.40;96.30
35690;DHT22;26977;44.830;-0.674;2022-08-03T00:09:01;22.50;96.50
35690;DHT22;26977;44.830;-0.674;2022-08-03T00:11:27;22.50;96.40
35690;DHT22;26977;44.830;-0.674;2022-08-03T00:13:53;22.60;96.50
35690;DHT22;26977;44.830;-0.674;2022-08-03T00:16:19;22.60;96.40
35690;DHT22;26977;44.830;-0.674;2022-08-03T00:18:44;22.50;96.40
35690;DHT22;26977;44.830;-0.674;2022-08-03T00:21:10;22.50;96.80
35690;DHT22;26977;44.830;-0.674;2022-08-03T00:23:36;22.50;96.80
35690;DHT22;26977;44.830;-0.674;2022-08-03T00:26:02;22.50;97.20
35690;DHT22;26977;44.830;-0.674;2022-08-03T00:28:28;22.50;97.10
35690;DHT22;26977;44.830;-0.674;2022-08-03T00:30:54;22.50;97.20
35690;DHT22;26977;44.830;-0.674;2022-08-03T00:33:22;22.40;97.30
35690;DHT22;26977;44.830;-0.674;2022-08-03T00:35:48;22.30;97.20
35690;DHT22;26977;44.830;-0.674;2022-08-03T00:38:14;22.20;98.10
35690;DHT22;26977;44.830;-0.674;2022-08-03T00:40:39;22.30;98.10
35690;DHT22;26977;44.830;-0.674;2022-08-03T00:43:06;22.30;98.10
35690;DHT22;26977;44.830;-0.674;2022-08-03T00:45:40;22.40;98.10
35690;DHT22;26977;44.830;-0.674;2022-08-03T00:48:07;22.30;98.00
35690;DHT22;26977;44.830;-0.674;2022-08-03T00:50:38;22.30;98.10
35690;DHT22;26977;44.830;-0.674;2022-08-03T00:53:06;22.30;98.20
35690;DHT22;26977;44.830;-0.674;2022-08-03T00:55:35;22.30;98.40
35690;DHT22;26977;44.830;-0.674;2022-08-03T00:58:02;22.30;98.20
35690;DHT22;26977;44.830;-0.674;2022-08-03T01:00:31;22.20;98.30
35690;DHT22;26977;44.830;-0.674;2022-08-03T01:02:57;22.10;98.30
35690;DHT22;26977;44.830;-0.674;2022-08-03T01:05:23;22.00;98.40
35690;DHT22;26977;44.830;-0.674;2022-08-03T01:16:09;21.50;99.70
35690;DHT22;26977;44.830;-0.674;2022-08-03T01:18:59;21.30;99.70
35690;DHT22;26977;44.830;-0.674;2022-08-03T01:21:31;21.40;99.90
35690;DHT22;26977;44.830;-0.674;2022-08-03T01:29:31;21.50;99.60
35690;DHT22;26977;44.830;-0.674;2022-08-03T01:32:01;21.30;99.50
35690;DHT22;26977;44.830;-0.674;2022-08-03T01:34:31;21.30;99.90
35690;DHT22;26977;44.830;-0.674;2022-08-03T01:37:00;21.20;99.90
35690;DHT22;26977;44.830;-0.674;2022-08-03T01:39:28;21.10;99.90
35690;DHT22;26977;44.830;-0.674;2022-08-03T01:41:59;21.10;99.90
35690;DHT22;26977;44.830;-0.674;2022-08-03T01:44:29;21.10;99.90
35690;DHT22;26977;44.830;-0.674;2022-08-03T01:46:59;21.10;99.90
35690;DHT22;26977;44.830;-0.674;2022-08-03T01:49:28;20.90;99.90
35690;DHT22;26977;44.830;-0.674;2022-08-03T01:51:55;20.90;99.90
35690;DHT22;26977;44.830;-0.674;2022-08-03T01:54:22;21.10;99.90
35690;DHT22;26977;44.830;-0.674;2022-08-03T01:56:50;21.20;99.90
35690;DHT22;26977;44.830;-0.674;2022-08-03T01:59:18;21.30;99.90
35690;DHT22;26977;44.830;-0.674;2022-08-03T02:01:45;21.30;99.90
35690;DHT22;26977;44.830;-0.674;2022-08-03T02:04:13;21.20;99.90
35690;DHT22;26977;44.830;-0.674;2022-08-03T02:06:44;21.20;99.90
35690;DHT22;26977;44.830;-0.674;2022-08-03T02:09:12;21.20;99.90
35690;DHT22;26977;44.830;-0.674;2022-08-03T02:11:39;21.10;99.90
35690;DHT22;26977;44.830;-0.674;2022-08-03T02:14:07;20.90;99.90
35690;DHT22;26977;44.830;-0.674;2022-08-03T02:16:34;20.90;99.90
35690;DHT22;26977;44.830;-0.674;2022-08-03T02:19:03;20.90;99.90
35690;DHT22;26977;44.830;-0.674;2022-08-03T02:21:32;20.90;99.90
35690;DHT22;26977;44.830;-0.674;2022-08-03T02:24:00;20.70;99.90
35690;DHT22;26977;44.830;-0.674;2022-08-03T02:26:28;20.80;99.90
35690;DHT22;26977;44.830;-0.674;2022-08-03T02:29:00;20.70;99.90
35690;DHT22;26977;44.830;-0.674;2022-08-03T02:31:29;20.60;99.90
35690;DHT22;26977;44.830;-0.674;2022-08-03T02:34:00;20.50;99.90
35690;DHT22;26977;44.830;-0.674;2022-08-03T02:36:28;20.40;99.90
35690;DHT22;26977;44.830;-0.674;2022-08-03T02:38:58;20.30;99.90
35690;DHT22;26977;44.830;-0.674;2022-08-03T02:41:30;20.20;99.90
35690;DHT22;26977;44.830;-0.674;2022-08-03T02:43:58;20.10;99.90
35690;DHT22;26977;44.830;-0.674;2022-08-03T02:46:31;20.10;99.90
35690;DHT22;26977;44.830;-0.674;2022-08-03T02:49:00;20.00;99.90
35690;DHT22;26977;44.830;-0.674;2022-08-03T02:51:28;19.90;99.90
35690;DHT22;26977;44.830;-0.674;2022-08-03T02:53:55;19.90;99.90
35690;DHT22;26977;44.830;-0.674;2022-08-03T02:56:23;19.80;99.90
35690;DHT22;26977;44.830;-0.674;2022-08-03T02:58:50;19.80;99.90
35690;DHT22;26977;44.830;-0.674;2022-08-03T03:01:20;19.90;99.90
35690;DHT22;26977;44.830;-0.674;2022-08-03T03:03:47;19.90;99.90
35690;DHT22;26977;44.830;-0.674;2022-08-03T03:06:15;20.10;99.90
35690;DHT22;26977;44.830;-0.674;2022-08-03T03:08:41;20.20;99.90
35690;DHT22;26977;44.830;-0.674;2022-08-03T03:11:07;20.10;99.90
35690;DHT22;26977;44.830;-0.674;2022-08-03T03:13:35;20.10;99.90
35690;DHT22;26977;44.830;-0.674;2022-08-03T03:16:03;20.00;99.90
35690;DHT22;26977;44.830;-0.674;2022-08-03T03:18:32;19.90;99.90
35690;DHT22;26977;44.830;-0.674;2022-08-03T03:21:00;19.80;99.90
35690;DHT22;26977;44.830;-0.674;2022-08-03T03:23:27;19.70;99.90
35690;DHT22;26977;44.830;-0.674;2022-08-03T03:25:55;19.60;99.90
35690;DHT22;26977;44.830;-0.674;2022-08-03T03:28:23;19.60;99.90
35690;DHT22;26977;44.830;-0.674;2022-08-03T03:30:50;19.50;99.90
35690;DHT22;26977;44.830;-0.674;2022-08-03T03:33:16;19.50;99.90
35690;DHT22;26977;44.830;-0.674;2022-08-03T03:35:42;19.50;99.90
35690;DHT22;26977;44.830;-0.674;2022-08-03T03:38:10;19.50;99.90
35690;DHT22;26977;44.830;-0.674;2022-08-03T03:40:37;19.40;99.90
35690;DHT22;26977;44.830;-0.674;2022-08-03T03:43:07;19.50;99.90
35690;DHT22;26977;44.830;-0.674;2022-08-03T03:45:34;19.50;99.90
35690;DHT22;26977;44.830;-0.674;2022-08-03T03:48:04;19.50;99.90
35690;DHT22;26977;44.830;-0.674;2022-08-03T03:50:34;19.50;99.90
35690;DHT22;26977;44.830;-0.674;2022-08-03T03:53:01;19.50;99.90
35690;DHT22;26977;44.830;-0.674;2022-08-03T03:55:27;19.40;99.90
35690;DHT22;26977;44.830;-0.674;2022-08-03T03:57:53;19.40;99.90
35690;DHT22;26977;44.830;-0.674;2022-08-03T04:00:19;19.50;99.90
35690;DHT22;26977;44.830;-0.674;2022-08-03T04:02:45;19.60;99.90
35690;DHT22;26977;44.830;-0.674;2022-08-03T04:05:12;19.80;99.90
35690;DHT22;26977;44.830;-0.674;2022-08-03T04:08:03;19.80;99.90
35690;DHT22;26977;44.830;-0.674;2022-08-03T04:13:38;19.90;99.90
35690;DHT22;26977;44.830;-0.674;2022-08-03T04:16:06;19.90;99.90
35690;DHT22;26977;44.830;-0.674;2022-08-03T04:18:34;19.90;99.90
35690;DHT22;26977;44.830;-0.674;2022-08-03T04:21:05;19.80;99.90
35690;DHT22;26977;44.830;-0.674;2022-08-03T04:23:33;19.70;99.90
35690;DHT22;26977;44.830;-0.674;2022-08-03T04:26:01;19.70;99.90
35690;DHT22;26977;44.830;-0.674;2022-08-03T04:28:28;19.80;99.90
35690;DHT22;26977;44.830;-0.674;2022-08-03T04:30:55;19.90;99.90
35690;DHT22;26977;44.830;-0.674;2022-08-03T04:33:22;19.80;99.90
35690;DHT22;26977;44.830;-0.674;2022-08-03T04:35:51;19.70;99.90
35690;DHT22;26977;44.830;-0.674;2022-08-03T04:38:20;19.70;99.90
35690;DHT22;26977;44.830;-0.674;2022-08-03T04:40:47;19.70;99.90
35690;DHT22;26977;44.830;-0.674;2022-08-03T04:43:14;19.70;99.90
35690;DHT22;26977;44.830;-0.674;2022-08-03T04:45:41;19.80;99.90
35690;DHT22;26977;44.830;-0.674;2022-08-03T04:48:08;19.80;99.90
35690;DHT22;26977;44.830;-0.674;2022-08-03T04:50:34;19.70;99.90
35690;DHT22;26977;44.830;-0.674;2022-08-03T04:53:00;19.70;99.90
35690;DHT22;26977;44.830;-0.674;2022-08-03T04:55:31;19.80;99.90
35690;DHT22;26977;44.830;-0.674;2022-08-03T04:57:58;20.10;99.90
35690;DHT22;26977;44.830;-0.674;2022-08-03T05:00:24;20.10;99.90
35690;DHT22;26977;44.830;-0.674;2022-08-03T05:02:50;20.10;99.90
35690;DHT22;26977;44.830;-0.674;2022-08-03T05:05:16;20.20;99.90
35690;DHT22;26977;44.830;-0.674;2022-08-03T05:07:42;20.30;99.90
35690;DHT22;26977;44.830;-0.674;2022-08-03T05:10:10;20.30;99.90
35690;DHT22;26977;44.830;-0.674;2022-08-03T05:12:36;20.30;99.90
35690;DHT22;26977;44.830;-0.674;2022-08-03T05:15:02;20.40;99.90
35690;DHT22;26977;44.830;-0.674;2022-08-03T05:17:28;20.40;99.90
35690;DHT22;26977;44.830;-0.674;2022-08-03T05:19:54;20.40;99.90
35690;DHT22;26977;44.830;-0.674;2022-08-03T05:22:20;20.40;99.90
35690;DHT22;26977;44.830;-0.674;2022-08-03T05:24:46;20.30;99.90
35690;DHT22;26977;44.830;-0.674;2022-08-03T05:27:12;20.30;99.90
35690;DHT22;26977;44.830;-0.674;2022-08-03T05:29:48;20.30;99.90
35690;DHT22;26977;44.830;-0.674;2022-08-03T05:32:15;20.30;99.90
35690;DHT22;26977;44.830;-0.674;2022-08-03T05:34:42;20.30;99.90
35690;DHT22;26977;44.830;-0.674;2022-08-03T05:37:08;20.30;99.90
35690;DHT22;26977;44.830;-0.674;2022-08-03T05:39:34;20.30;99.90
35690;DHT22;26977;44.830;-0.674;2022-08-03T05:42:00;20.50;99.90
35690;DHT22;26977;44.830;-0.674;2022-08-03T05:44:26;20.80;99.90
35690;DHT22;26977;44.830;-0.674;2022-08-03T05:46:51;20.90;99.90
35690;DHT22;26977;44.830;-0.674;2022-08-03T05:49:18;21.00;99.90
35690;DHT22;26977;44.830;-0.674;2022-08-03T05:51:44;21.00;99.90
35690;DHT22;26977;44.830;-0.674;2022-08-03T05:54:10;21.00;99.90
35690;DHT22;26977;44.830;-0.674;2022-08-03T05:56:36;21.10;99.90
35690;DHT22;26977;44.830;-0.674;2022-08-03T05:59:02;21.20;99.90
35690;DHT22;26977;44.830;-0.674;2022-08-03T06:01:28;21.10;99.90
35690;DHT22;26977;44.830;-0.674;2022-08-03T06:03:57;21.10;99.90
35690;DHT22;26977;44.830;-0.674;2022-08-03T06:06:22;21.10;99.90
35690;DHT22;26977;44.830;-0.674;2022-08-03T06:08:48;21.10;99.90
35690;DHT22;26977;44.830;-0.674;2022-08-03T06:11:14;21.10;99.90
35690;DHT22;26977;44.830;-0.674;2022-08-03T06:13:43;21.20;99.90
35690;DHT22;26977;44.830;-0.674;2022-08-03T06:16:09;21.40;99.90
35690;DHT22;26977;44.830;-0.674;2022-08-03T06:18:36;21.50;99.90
35690;DHT22;26977;44.830;-0.674;2022-08-03T06:21:02;21.70;99.90
35690;DHT22;26977;44.830;-0.674;2022-08-03T06:23:28;21.90;99.90
35690;DHT22;26977;44.830;-0.674;2022-08-03T06:25:53;22.10;99.90
35690;DHT22;26977;44.830;-0.674;2022-08-03T06:28:19;22.30;99.20
35690;DHT22;26977;44.830;-0.674;2022-08-03T06:30:45;22.50;98.30
35690;DHT22;26977;44.830;-0.674;2022-08-03T06:33:11;22.80;97.10
35690;DHT22;26977;44.830;-0.674;2022-08-03T06:35:37;23.00;96.60
35690;DHT22;26977;44.830;-0.674;2022-08-03T06:38:02;23.10;95.80
35690;DHT22;26977;44.830;-0.674;2022-08-03T06:40:28;23.20;95.20
35690;DHT22;26977;44.830;-0.674;2022-08-03T06:42:59;23.30;94.70
35690;DHT22;26977;44.830;-0.674;2022-08-03T06:45:26;23.50;94.70
35690;DHT22;26977;44.830;-0.674;2022-08-03T06:48:06;23.50;94.50
35690;DHT22;26977;44.830;-0.674;2022-08-03T06:50:34;23.70;93.30
35690;DHT22;26977;44.830;-0.674;2022-08-03T06:53:00;23.90;93.00
35690;DHT22;26977;44.830;-0.674;2022-08-03T06:55:26;24.00;92.20
35690;DHT22;26977;44.830;-0.674;2022-08-03T06:57:52;24.20;91.50
35690;DHT22;26977;44.830;-0.674;2022-08-03T07:00:18;24.30;91.30
35690;DHT22;26977;44.830;-0.674;2022-08-03T07:02:44;24.60;91.10
35690;DHT22;26977;44.830;-0.674;2022-08-03T07:05:10;24.70;90.70
35690;DHT22;26977;44.830;-0.674;2022-08-03T07:07:36;24.70;90.40
35690;DHT22;26977;44.830;-0.674;2022-08-03T07:10:03;24.80;90.30
35690;DHT22;26977;44.830;-0.674;2022-08-03T07:12:30;25.00;90.30
35690;DHT22;26977;44.830;-0.674;2022-08-03T07:14:57;25.10;90.20
35690;DHT22;26977;44.830;-0.674;2022-08-03T07:17:24;25.10;90.30
35690;DHT22;26977;44.830;-0.674;2022-08-03T07:19:49;25.30;90.60
35690;DHT22;26977;44.830;-0.674;2022-08-03T07:22:16;25.30;90.70
35690;DHT22;26977;44.830;-0.674;2022-08-03T07:24:41;25.40;90.60
35690;DHT22;26977;44.830;-0.674;2022-08-03T07:27:10;25.60;90.00
35690;DHT22;26977;44.830;-0.674;2022-08-03T07:29:36;25.70;88.20
35690;DHT22;26977;44.830;-0.674;2022-08-03T07:32:03;25.70;88.80
35690;DHT22;26977;44.830;-0.674;2022-08-03T07:34:29;25.70;89.40
35690;DHT22;26977;44.830;-0.674;2022-08-03T07:36:55;25.80;89.10
35690;DHT22;26977;44.830;-0.674;2022-08-03T07:39:21;25.90;89.00
35690;DHT22;26977;44.830;-0.674;2022-08-03T07:41:46;26.00;88.20
35690;DHT22;26977;44.830;-0.674;2022-08-03T07:44:14;26.10;87.30
35690;DHT22;26977;44.830;-0.674;2022-08-03T07:46:40;26.20;87.10
35690;DHT22;26977;44.830;-0.674;2022-08-03T07:49:06;26.40;86.50
35690;DHT22;26977;44.830;-0.674;2022-08-03T07:51:31;26.60;85.80
35690;DHT22;26977;44.830;-0.674;2022-08-03T07:53:57;26.70;84.40
35690;DHT22;26977;44.830;-0.674;2022-08-03T07:56:23;26.70;83.70
35690;DHT22;26977;44.830;-0.674;2022-08-03T07:58:50;26.70;83.40
35690;DHT22;26977;44.830;-0.674;2022-08-03T08:01:16;26.90;83.70
35690;DHT22;26977;44.830;-0.674;2022-08-03T08:03:44;27.00;82.70
35690;DHT22;26977;44.830;-0.674;2022-08-03T08:06:10;27.10;81.80
35690;DHT22;26977;44.830;-0.674;2022-08-03T08:08:37;27.20;81.50
35690;DHT22;26977;44.830;-0.674;2022-08-03T08:11:04;27.30;80.80
35690;DHT22;26977;44.830;-0.674;2022-08-03T08:13:29;27.50;80.60
35690;DHT22;26977;44.830;-0.674;2022-08-03T08:15:55;27.70;80.30
35690;DHT22;26977;44.830;-0.674;2022-08-03T08:18:21;27.80;79.10
35690;DHT22;26977;44.830;-0.674;2022-08-03T08:20:49;27.90;78.50
35690;DHT22;26977;44.830;-0.674;2022-08-03T08:23:15;28.00;78.00
35690;DHT22;26977;44.830;-0.674;2022-08-03T08:25:42;28.10;77.30
35690;DHT22;26977;44.830;-0.674;2022-08-03T08:28:07;28.10;77.30
35690;DHT22;26977;44.830;-0.674;2022-08-03T08:30:33;28.20;77.70
35690;DHT22;26977;44.830;-0.674;2022-08-03T08:32:59;28.30;77.00
35690;DHT22;26977;44.830;-0.674;2022-08-03T08:35:25;28.50;76.40
35690;DHT22;26977;44.830;-0.674;2022-08-03T08:37:51;28.70;76.50
35690;DHT22;26977;44.830;-0.674;2022-08-03T08:40:20;28.90;76.10
35690;DHT22;26977;44.830;-0.674;2022-08-03T08:42:46;29.20;75.50
35690;DHT22;26977;44.830;-0.674;2022-08-03T08:45:12;29.40;74.90
35690;DHT22;26977;44.830;-0.674;2022-08-03T08:47:43;29.50;74.70
35690;DHT22;26977;44.830;-0.674;2022-08-03T08:50:09;29.60;74.30
35690;DHT22;26977;44.830;-0.674;2022-08-03T08:52:39;29.80;73.70
35690;DHT22;26977;44.830;-0.674;2022-08-03T08:55:08;29.90;74.20
35690;DHT22;26977;44.830;-0.674;2022-08-03T08:57:37;30.10;73.70
35690;DHT22;26977;44.830;-0.674;2022-08-03T09:00:07;30.30;73.40
35690;DHT22;26977;44.830;-0.674;2022-08-03T09:02:40;30.50;72.60
35690;DHT22;26977;44.830;-0.674;2022-08-03T09:05:14;30.70;71.30
35690;DHT22;26977;44.830;-0.674;2022-08-03T09:07:41;30.70;72.00
35690;DHT22;26977;44.830;-0.674;2022-08-03T09:10:08;30.70;71.40
35690;DHT22;26977;44.830;-0.674;2022-08-03T09:12:52;31.10;71.50
35690;DHT22;26977;44.830;-0.674;2022-08-03T09:15:22;31.60;70.90
35690;DHT22;26977;44.830;-0.674;2022-08-03T09:17:49;31.90;70.90
35690;DHT22;26977;44.830;-0.674;2022-08-03T09:20:15;32.20;69.10
35690;DHT22;26977;44.830;-0.674;2022-08-03T09:23:04;32.20;68.60
35690;DHT22;26977;44.830;-0.674;2022-08-03T09:25:37;32.00;68.20
35690;DHT22;26977;44.830;-0.674;2022-08-03T09:30:30;31.60;69.10
35690;DHT22;26977;44.830;-0.674;2022-08-03T09:33:00;31.40;68.90
35690;DHT22;26977;44.830;-0.674;2022-08-03T09:35:27;31.40;68.80
35690;DHT22;26977;44.830;-0.674;2022-08-03T09:38:28;31.40;69.20
35690;DHT22;26977;44.830;-0.674;2022-08-03T09:40:55;31.50;69.10
35690;DHT22;26977;44.830;-0.674;2022-08-03T09:43:21;31.50;69.20
35690;DHT22;26977;44.830;-0.674;2022-08-03T09:45:49;31.90;68.30
35690;DHT22;26977;44.830;-0.674;2022-08-03T09:48:29;32.00;67.60
35690;DHT22;26977;44.830;-0.674;2022-08-03T09:50:57;32.10;66.60
35690;DHT22;26977;44.830;-0.674;2022-08-03T09:53:23;32.20;66.90
35690;DHT22;26977;44.830;-0.674;2022-08-03T09:56:07;32.40;66.30
35690;DHT22;26977;44.830;-0.674;2022-08-03T09:58:33;32.40;65.80
35690;DHT22;26977;44.830;-0.674;2022-08-03T10:01:08;32.60;63.30
35690;DHT22;26977;44.830;-0.674;2022-08-03T10:03:36;32.70;62.30
35690;DHT22;26977;44.830;-0.674;2022-08-03T10:06:18;32.80;62.70
35690;DHT22;26977;44.830;-0.674;2022-08-03T10:08:45;32.80;62.70
35690;DHT22;26977;44.830;-0.674;2022-08-03T10:11:11;32.80;62.80
35690;DHT22;26977;44.830;-0.674;2022-08-03T10:13:37;33.20;60.70
35690;DHT22;26977;44.830;-0.674;2022-08-03T10:16:04;33.30;60.50
35690;DHT22;26977;44.830;-0.674;2022-08-03T10:18:30;33.30;61.30
35690;DHT22;26977;44.830;-0.674;2022-08-03T10:21:04;33.40;61.20
35690;DHT22;26977;44.830;-0.674;2022-08-03T10:23:34;33.70;59.20
35690;DHT22;26977;44.830;-0.674;2022-08-03T10:26:02;33.90;57.40
35690;DHT22;26977;44.830;-0.674;2022-08-03T10:28:34;33.70;57.00
35690;DHT22;26977;44.830;-0.674;2022-08-03T10:31:00;33.90;55.30
35690;DHT22;26977;44.830;-0.674;2022-08-03T10:33:31;33.80;57.30
35690;DHT22;26977;44.830;-0.674;2022-08-03T10:35:59;33.50;58.00
35690;DHT22;26977;44.830;-0.674;2022-08-03T10:38:56;33.40;58.70
35690;DHT22;26977;44.830;-0.674;2022-08-03T10:41:25;33.90;58.20
35690;DHT22;26977;44.830;-0.674;2022-08-03T10:44:02;34.10;56.80
35690;DHT22;26977;44.830;-0.674;2022-08-03T10:46:28;34.30;55.00
35690;DHT22;26977;44.830;-0.674;2022-08-03T10:48:55;34.40;54.90
35690;DHT22;26977;44.830;-0.674;2022-08-03T10:51:21;34.50;54.80
35690;DHT22;26977;44.830;-0.674;2022-08-03T10:53:48;34.60;55.10
35690;DHT22;26977;44.830;-0.674;2022-08-03T11:02:09;35.00;55.00
35690;DHT22;26977;44.830;-0.674;2022-08-03T11:04:36;35.10;54.30
35690;DHT22;26977;44.830;-0.674;2022-08-03T11:09:45;35.10;54.90
35690;DHT22;26977;44.830;-0.674;2022-08-03T11:12:31;35.50;53.90
35690;DHT22;26977;44.830;-0.674;2022-08-03T11:15:01;35.40;54.40
35690;DHT22;26977;44.830;-0.674;2022-08-03T11:17:28;35.20;53.90
35690;DHT22;26977;44.830;-0.674;2022-08-03T11:19:54;35.00;54.10
35690;DHT22;26977;44.830;-0.674;2022-08-03T11:22:20;35.30;53.60
35690;DHT22;26977;44.830;-0.674;2022-08-03T11:27:16;36.00;53.40
35690;DHT22;26977;44.830;-0.674;2022-08-03T11:46:08;36.80;51.00
35690;DHT22;26977;44.830;-0.674;2022-08-03T11:48:53;37.00;51.80
35690;DHT22;26977;44.830;-0.674;2022-08-03T11:51:28;37.30;50.90
35690;DHT22;26977;44.830;-0.674;2022-08-03T11:54:05;37.50;50.30
35690;DHT22;26977;44.830;-0.674;2022-08-03T11:56:45;37.70;50.10
35690;DHT22;26977;44.830;-0.674;2022-08-03T11:59:11;37.50;50.60
35690;DHT22;26977;44.830;-0.674;2022-08-03T12:01:37;37.70;51.00
35690;DHT22;26977;44.830;-0.674;2022-08-03T12:04:05;37.80;50.10
35690;DHT22;26977;44.830;-0.674;2022-08-03T12:06:31;38.50;50.20
35690;DHT22;26977;44.830;-0.674;2022-08-03T12:09:17;39.50;50.10
35690;DHT22;26977;44.830;-0.674;2022-08-03T12:11:46;40.00;48.30
35690;DHT22;26977;44.830;-0.674;2022-08-03T12:14:18;39.50;48.10
35690;DHT22;26977;44.830;-0.674;2022-08-03T12:16:47;39.30;48.30
35690;DHT22;26977;44.830;-0.674;2022-08-03T12:19:14;39.40;48.30
35690;DHT22;26977;44.830;-0.674;2022-08-03T12:21:46;38.90;48.00
35690;DHT22;26977;44.830;-0.674;2022-08-03T12:24:13;38.40;48.50
35690;DHT22;26977;44.830;-0.674;2022-08-03T12:26:47;38.30;48.80
35690;DHT22;26977;44.830;-0.674;2022-08-03T12:29:22;38.70;49.00
35690;DHT22;26977;44.830;-0.674;2022-08-03T12:31:50;38.80;48.20
35690;DHT22;26977;44.830;-0.674;2022-08-03T12:34:16;38.50;48.20
35690;DHT22;26977;44.830;-0.674;2022-08-03T12:36:54;38.50;48.60
35690;DHT22;26977;44.830;-0.674;2022-08-03T12:39:25;38.60;49.00
35690;DHT22;26977;44.830;-0.674;2022-08-03T12:41:53;39.10;47.70
35690;DHT22;26977;44.830;-0.674;2022-08-03T12:44:29;39.90;47.00
35690;DHT22;26977;44.830;-0.674;2022-08-03T12:46:59;40.60;46.70
35690;DHT22;26977;44.830;-0.674;2022-08-03T12:49:25;40.60;46.50
35690;DHT22;26977;44.830;-0.674;2022-08-03T12:54:20;41.30;46.50
35690;DHT22;26977;44.830;-0.674;2022-08-03T12:57:04;40.90;45.40
35690;DHT22;26977;44.830;-0.674;2022-08-03T12:59:32;40.10;46.00
35690;DHT22;26977;44.830;-0.674;2022-08-03T13:01:58;39.80;46.60
35690;DHT22;26977;44.830;-0.674;2022-08-03T13:04:32;40.40;45.80
35690;DHT22;26977;44.830;-0.674;2022-08-03T13:07:05;40.80;45.90
35690;DHT22;26977;44.830;-0.674;2022-08-03T13:09:47;41.70;45.30
35690;DHT22;26977;44.830;-0.674;2022-08-03T13:12:17;42.80;44.70
35690;DHT22;26977;44.830;-0.674;2022-08-03T13:14:46;43.60;44.10
35690;DHT22;26977;44.830;-0.674;2022-08-03T13:17:12;43.40;43.80
35690;DHT22;26977;44.830;-0.674;2022-08-03T13:19:39;43.70;44.00
35690;DHT22;26977;44.830;-0.674;2022-08-03T13:22:15;44.20;43.20
35690;DHT22;26977;44.830;-0.674;2022-08-03T13:24:42;44.80;43.10
35690;DHT22;26977;44.830;-0.674;2022-08-03T13:27:08;45.70;41.70
35690;DHT22;26977;44.830;-0.674;2022-08-03T13:29:34;45.70;41.30
35690;DHT22;26977;44.830;-0.674;2022-08-03T13:32:01;44.00;41.60
35690;DHT22;26977;44.830;-0.674;2022-08-03T13:34:27;42.70;42.10
35690;DHT22;26977;44.830;-0.674;2022-08-03T13:36:53;41.10;43.10
35690;DHT22;26977;44.830;-0.674;2022-08-03T13:39:19;40.00;44.10
35690;DHT22;26977;44.830;-0.674;2022-08-03T13:41:45;38.60;45.00
35690;DHT22;26977;44.830;-0.674;2022-08-03T13:44:11;38.00;45.60
35690;DHT22;26977;44.830;-0.674;2022-08-03T13:46:37;38.00;46.00
35690;DHT22;26977;44.830;-0.674;2022-08-03T13:49:03;38.40;46.50
35690;DHT22;26977;44.830;-0.674;2022-08-03T13:51:28;39.00;46.10
35690;DHT22;26977;44.830;-0.674;2022-08-03T13:53:54;39.50;46.10
35690;DHT22;26977;44.830;-0.674;2022-08-03T13:56:20;39.70;46.00
35690;DHT22;26977;44.830;-0.674;2022-08-03T13:58:46;40.60;46.00
35690;DHT22;26977;44.830;-0.674;2022-08-03T14:01:11;41.60;45.70
35690;DHT22;26977;44.830;-0.674;2022-08-03T14:03:37;42.50;45.10
35690;DHT22;26977;44.830;-0.674;2022-08-03T14:06:03;43.60;44.80
35690;DHT22;26977;44.830;-0.674;2022-08-03T14:08:28;43.90;44.10
35690;DHT22;26977;44.830;-0.674;2022-08-03T14:10:54;43.60;44.40
35690;DHT22;26977;44.830;-0.674;2022-08-03T14:13:20;43.70;44.10
35690;DHT22;26977;44.830;-0.674;2022-08-03T14:15:47;44.10;43.60
35690;DHT22;26977;44.830;-0.674;2022-08-03T14:18:12;44.20;43.50
35690;DHT22;26977;44.830;-0.674;2022-08-03T14:20:38;43.90;44.10
35690;DHT22;26977;44.830;-0.674;2022-08-03T14:23:04;44.60;44.20
35690;DHT22;26977;44.830;-0.674;2022-08-03T14:25:31;45.00;43.90
35690;DHT22;26977;44.830;-0.674;2022-08-03T14:27:56;45.60;44.40
35690;DHT22;26977;44.830;-0.674;2022-08-03T14:30:22;46.20;44.90
35690;DHT22;26977;44.830;-0.674;2022-08-03T14:32:48;46.60;43.60
35690;DHT22;26977;44.830;-0.674;2022-08-03T14:35:13;47.30;43.20
35690;DHT22;26977;44.830;-0.674;2022-08-03T14:37:39;46.70;43.10
35690;DHT22;26977;44.830;-0.674;2022-08-03T14:40:05;46.50;43.40
35690;DHT22;26977;44.830;-0.674;2022-08-03T14:42:31;45.80;43.30
35690;DHT22;26977;44.830;-0.674;2022-08-03T14:44:56;46.10;43.80
35690;DHT22;26977;44.830;-0.674;2022-08-03T14:47:22;46.30;43.30
35690;DHT22;26977;44.830;-0.674;2022-08-03T14:49:48;46.90;43.10
35690;DHT22;26977;44.830;-0.674;2022-08-03T14:52:14;47.80;42.50
35690;DHT22;26977;44.830;-0.674;2022-08-03T14:54:40;45.90;43.10
35690;DHT22;26977;44.830;-0.674;2022-08-03T14:57:05;44.80;44.20
35690;DHT22;26977;44.830;-0.674;2022-08-03T14:59:31;45.60;44.60
35690;DHT22;26977;44.830;-0.674;2022-08-03T15:01:57;46.80;43.70
35690;DHT22;26977;44.830;-0.674;2022-08-03T15:04:23;47.20;42.90
35690;DHT22;26977;44.830;-0.674;2022-08-03T15:06:48;47.70;42.60
35690;DHT22;26977;44.830;-0.674;2022-08-03T15:09:14;48.50;43.10
35690;DHT22;26977;44.830;-0.674;2022-08-03T15:11:40;49.50;42.20
35690;DHT22;26977;44.830;-0.674;2022-08-03T15:14:06;50.00;41.80
35690;DHT22;26977;44.830;-0.674;2022-08-03T15:16:32;50.30;41.30
35690;DHT22;26977;44.830;-0.674;2022-08-03T15:18:57;49.20;41.70
35690;DHT22;26977;44.830;-0.674;2022-08-03T15:21:25;48.00;42.20
35690;DHT22;26977;44.830;-0.674;2022-08-03T15:23:50;47.70;42.10
35690;DHT22;26977;44.830;-0.674;2022-08-03T15:26:17;47.60;42.10
35690;DHT22;26977;44.830;-0.674;2022-08-03T15:28:42;47.00;42.60
35690;DHT22;26977;44.830;-0.674;2022-08-03T15:31:08;46.90;42.50
35690;DHT22;26977;44.830;-0.674;2022-08-03T15:33:34;47.00;42.50
35690;DHT22;26977;44.830;-0.674;2022-08-03T15:35:59;47.00;42.20
35690;DHT22;26977;44.830;-0.674;2022-08-03T15:38:25;46.30;42.70
35690;DHT22;26977;44.830;-0.674;2022-08-03T15:40:51;47.10;42.20
35690;DHT22;26977;44.830;-0.674;2022-08-03T15:43:21;47.20;42.00
35690;DHT22;26977;44.830;-0.674;2022-08-03T15:45:46;47.30;42.30
35690;DHT22;26977;44.830;-0.674;2022-08-03T15:48:12;46.30;42.40
35690;DHT22;26977;44.830;-0.674;2022-08-03T15:50:38;45.30;42.90
35690;DHT22;26977;44.830;-0.674;2022-08-03T15:53:03;45.70;42.70
35690;DHT22;26977;44.830;-0.674;2022-08-03T15:55:29;45.70;42.70
35690;DHT22;26977;44.830;-0.674;2022-08-03T15:57:56;46.30;43.00
35690;DHT22;26977;44.830;-0.674;2022-08-03T16:00:22;46.50;42.00
35690;DHT22;26977;44.830;-0.674;2022-08-03T16:02:48;46.70;42.10
35690;DHT22;26977;44.830;-0.674;2022-08-03T16:05:13;45.80;42.30
35690;DHT22;26977;44.830;-0.674;2022-08-03T16:07:39;44.90;42.40
35690;DHT22;26977;44.830;-0.674;2022-08-03T16:10:10;43.80;43.10